Latest Weather Observations for Wangaratta

IDV60801

Issued at 2:02 am EST Thursday 20 June 2019 (issued every 10 minutes, with the page automatically refreshed every 10 minutes)

About weather observations | Map of weather stations | Latest weather observations for VIC | Other Formats
Station Details ID: 082138 Name: WANGARATTA AERO Lat: -36.42 Lon: 146.31 Height: 152.6 m
Data from the previous 72 hours. | See also: Recent months at Wangaratta
Date/Time
EST
Temp
°C
App
Temp
°C
Dew
Point
°C
Rel
Hum
%
Delta-T
°C
Wind Press
QNH
hPa
Press
MSL
hPa
Rain since
9am
mm
Dir  Spd
km/h
Gust
km/h
Spd
kts
Gust
kts
20/02:00am 0.2 -1.8 0.1 99 0.0 CALM 0 0 0 0 1025.5 1025.8 0.2
20/01:30am 0.7 -2.5 0.6 99 0.0 ESE 7 9 4 5 1025.5 1025.8 0.2
20/01:18am 0.2 -2.1 0.1 99 0.0 ESE 2 7 1 4 1025.5 1025.8 0.2
20/01:14am 0.1 -1.9 0.0 99 0.0 CALM 0 0 0 0 1025.5 1025.8 0.2
20/01:00am 0.0 -2.8 -0.1 99 0.0 SE 4 6 2 3 1025.5 1025.8 0.2
20/12:55am 0.1 -3.0 0.0 99 0.0 SSE 6 7 3 4 1025.5 1025.8 0.2
20/12:42am 0.1 -2.6 0.0 99 0.0 SSW 4 7 2 4 1025.4 1025.7 0.2
20/12:30am 0.0 -3.1 -0.1 99 0.0 SW 6 7 3 4 1025.5 1025.8 0.2
20/12:00am 0.1 -2.6 0.0 99 0.0 WNW 4 6 2 3 1025.5 1025.8 0.2
 
Date/Time
EST
Temp
°C
App
Temp
°C
Dew
Point
°C
Rel
Hum
%
Delta-T
°C
Wind Press
QNH
hPa
Press
MSL
hPa
Rain since
9am
mm
Dir  Spd
km/h
Gust
km/h
Spd
kts
Gust
kts
19/11:30pm 0.6 -2.1 0.5 99 0.0 NE 4 7 2 4 1025.5 1025.8 0.2
19/11:00pm 1.5 -2.4 1.4 99 0.0 S 11 13 6 7 1025.5 1025.8 0.2
19/10:30pm 1.8 0.0 1.5 98 0.1 CALM 0 0 0 0 1025.6 1025.9 0.2
19/10:00pm 2.2 0.1 1.6 96 0.2 ESE 2 6 1 3 1025.4 1025.7 0.2
19/09:30pm 2.9 0.5 2.2 95 0.3 SE 4 7 2 4 1025.4 1025.7 0.2
19/09:00pm 3.5 0.7 2.2 91 0.5 SE 6 7 3 4 1025.2 1025.6 0.2
19/08:30pm 4.8 1.5 2.5 85 0.9 S 9 11 5 6 1025.2 1025.6 0.2
19/08:00pm 5.1 1.4 2.6 84 1.0 SW 11 13 6 7 1025.2 1025.6 0.2
19/07:30pm 5.0 1.3 2.5 84 1.0 SW 11 13 6 7 1025.0 1025.4 0.2
19/07:00pm 5.3 1.7 2.7 83 1.1 WSW 11 11 6 6 1025.0 1025.4 0.2
19/06:30pm 6.0 2.4 2.8 80 1.3 SW 11 13 6 7 1024.8 1025.2 0.2
19/06:00pm 7.0 3.0 3.1 76 1.6 SW 13 15 7 8 1024.7 1025.1 0.2
19/05:30pm 7.1 3.5 3.2 76 1.7 WSW 11 13 6 7 1024.6 1025.0 0.2
19/05:00pm 8.5 4.6 3.6 71 2.1 WSW 13 15 7 8 1024.6 1025.0 0.2
19/04:30pm 10.2 6.3 3.5 63 3.0 WSW 13 17 7 9 1024.6 1025.0 0.2
19/04:00pm 10.8 6.2 3.6 61 3.2 WSW 17 20 9 11 1024.4 1024.8 0.2
19/03:30pm 10.9 5.8 3.2 59 3.4 WSW 19 26 10 14 1024.4 1024.8 0.0
19/03:00pm 11.3 6.6 3.1 57 3.6 SW 17 22 9 12 1024.4 1024.8 0.0
19/02:30pm 11.1 6.9 3.6 60 3.3 W 15 22 8 12 1024.2 1024.6 0.0
19/02:00pm 10.8 6.6 3.8 62 3.1 SW 15 22 8 12 1024.5 1024.9 0.0
19/01:30pm 10.8 6.4 4.9 67 2.7 WSW 17 24 9 13 1024.7 1025.1 0.0
19/01:00pm 10.4 6.4 4.8 68 2.5 WSW 15 24 8 13 1025.0 1025.4 0.0
19/12:30pm 9.0 6.6 5.2 77 1.7 NNE 7 11 4 6 1025.4 1025.7 0.0
19/12:00pm 8.0 5.2 5.3 83 1.2 NNE 9 13 5 7 1025.8 1026.1 0.0
19/11:30am 8.5 7.0 5.1 79 1.5 NE 2 7 1 4 1025.9 1026.2 0.0
19/11:00am 6.6 4.2 4.4 86 1.0 NE 6 9 3 5 1026.2 1026.5 0.0
19/10:30am 5.2 2.2 4.0 92 0.5 NE 9 11 5 6 1026.3 1026.6 0.0
19/10:00am 4.8 2.6 3.6 92 0.5 ESE 4 7 2 4 1026.1 1026.4 0.0
19/09:30am 4.0 1.8 3.4 96 0.2 NE 4 7 2 4 1025.8 1026.1 0.0
19/09:00am 1.7 -1.4 1.6 99 0.0 SE 7 9 4 5 1025.7 1026.0 1.0
19/08:45am 0.9 -2.7 0.8 99 0.0 SE 9 13 5 7 1025.4 1025.7 1.0
19/08:40am 0.8 -3.2 0.7 99 0.0 SE 11 15 6 8 1025.2 1025.6 1.0
19/08:31am 0.7 -3.7 0.6 99 0.0 SE 13 15 7 8 1025.1 1025.5 1.0
19/08:30am 0.6 -3.8 0.5 99 0.0 SE 13 15 7 8 1025.1 1025.5 1.0
19/08:00am -0.3 -4.1 -0.4 99 0.0 SE 9 11 5 6 1025.0 1025.4 1.0
19/07:49am -1.2 -4.5 -1.3 99 0.0 ESE 6 9 3 5 1024.9 1025.3 1.0
19/07:34am -1.4 -4.4 -1.5 99 0.0 E 4 7 2 4 1024.7 1025.1 1.0
19/07:30am -1.2 -4.7 -1.3 99 0.0 E 7 9 4 5 1024.7 1025.1 1.0
19/07:00am -1.0 -3.1 -1.1 99 0.0 CALM 0 0 0 0 1024.4 1024.8 1.0
19/06:30am -0.8 -3.7 -0.9 99 0.0 SSE 4 7 2 4 1023.9 1024.2 1.0
19/06:00am -0.5 -3.9 -0.6 99 0.0 ESE 7 9 4 5 1023.6 1023.9 1.0
19/05:30am -0.5 -3.9 -0.6 99 0.0 ESE 7 9 4 5 1023.3 1023.6 1.0
19/05:00am -0.2 -3.4 -0.3 99 0.0 E 6 7 3 4 1023.1 1023.4 1.0
19/04:40am 0.1 -3.6 0.0 99 0.0 ESE 9 11 5 6 1023.1 1023.4 1.0
19/04:30am 0.3 -3.0 0.2 99 0.0 E 7 11 4 6 1023.1 1023.4 1.0
19/04:21am 0.6 -2.6 0.5 99 0.0 ESE 7 11 4 6 1023.1 1023.4 1.0
19/04:00am 1.2 -2.3 1.1 99 0.0 ESE 9 11 5 6 1022.9 1023.2 1.0
19/03:30am 1.9 -1.5 1.8 99 0.0 SW 9 9 5 5 1022.9 1023.2 1.0
19/03:00am 3.5 0.0 3.4 99 0.0 S 11 13 6 7 1022.8 1023.1 1.0
19/02:30am 2.8 -0.9 2.5 98 0.1 S 11 13 6 7 1022.8 1023.1 1.0
19/02:00am 3.0 -0.3 2.4 96 0.2 SE 9 11 5 6 1022.5 1022.8 1.0
19/01:30am 4.7 0.9 3.7 93 0.4 SW 13 17 7 9 1022.3 1022.6 1.0
19/01:00am 5.0 1.2 3.8 92 0.5 SSW 13 15 7 8 1022.4 1022.7 1.0
19/12:30am 5.2 1.0 3.7 90 0.6 SW 15 20 8 11 1022.2 1022.5 1.0
19/12:00am 4.8 0.5 3.5 91 0.5 SW 15 19 8 10 1022.3 1022.6 1.0
 
Date/Time
EST
Temp
°C
App
Temp
°C
Dew
Point
°C
Rel
Hum
%
Delta-T
°C
Wind Press
QNH
hPa
Press
MSL
hPa
Rain since
9am
mm
Dir  Spd
km/h
Gust
km/h
Spd
kts
Gust
kts
18/11:30pm 4.9 1.0 3.6 91 0.5 SW 13 15 7 8 1022.6 1022.9 1.0
18/11:00pm 5.6 1.8 3.9 89 0.7 SW 13 20 7 11 1022.4 1022.7 1.0
18/10:30pm 5.7 1.6 4.2 90 0.6 SW 15 20 8 11 1022.2 1022.5 1.0
18/10:00pm 5.8 1.7 4.4 91 0.6 WSW 15 19 8 10 1021.9 1022.2 1.0
18/09:30pm 6.5 1.7 4.7 88 0.8 WSW 19 22 10 12 1021.9 1022.2 1.0
18/09:00pm 6.9 2.5 4.9 87 0.9 SW 17 20 9 11 1021.6 1021.9 1.0
18/08:30pm 6.8 2.8 5.1 89 0.8 W 15 19 8 10 1021.4 1021.7 1.0
18/08:00pm 6.4 2.8 5.0 91 0.6 WSW 13 15 7 8 1021.2 1021.5 1.0
18/07:30pm 7.2 5.8 5.3 88 0.8 WSW 2 6 1 3 1021.0 1021.3 1.0
18/07:00pm 7.1 3.9 5.3 88 0.8 SSW 11 17 6 9 1021.0 1021.3 1.0
18/06:30pm 8.2 4.4 5.7 84 1.1 W 15 19 8 10 1020.6 1020.9 1.0
18/06:00pm 7.7 4.6 5.7 87 0.9 WSW 11 17 6 9 1020.3 1020.6 1.0
18/05:31pm 8.1 1.8 5.9 86 1.0 SW 28 46 15 25 1020.3 1020.6 0.8
18/05:30pm 8.3 2.0 5.8 84 1.1 SW 28 46 15 25 1020.3 1020.6 0.8
18/05:23pm 9.1 5.5 6.7 85 1.1 W 15 44 8 24 1020.2 1020.5 0.8
18/05:00pm 9.8 7.2 7.6 86 1.1 WNW 11 15 6 8 1019.4 1019.7 0.8
18/04:30pm 10.1 7.6 8.0 87 1.0 WNW 11 13 6 7 1019.1 1019.4 0.8
18/04:00pm 10.8 8.0 8.4 85 1.2 WNW 13 20 7 11 1018.9 1019.2 0.8
18/03:30pm 10.5 7.8 8.9 90 0.8 NW 13 20 7 11 1019.0 1019.3 0.8
18/03:00pm 10.0 8.3 9.9 99 0.1 NNW 9 11 5 6 1019.0 1019.3 0.8
18/02:51pm 9.9 7.8 9.8 99 0.1 NW 11 17 6 9 1019.1 1019.4 0.8
18/02:39pm 9.7 7.1 9.4 98 0.2 NNW 13 17 7 9 1019.0 1019.3 0.8
18/02:30pm 9.9 7.7 9.3 96 0.3 N 11 15 6 8 1018.9 1019.2 0.6
18/02:00pm 10.1 7.3 8.5 90 0.8 NNE 13 19 7 10 1018.8 1019.1 0.0
18/01:57pm 10.2 7.5 8.8 91 0.7 NNE 13 19 7 10 1018.8 1019.1 0.0
18/01:30pm 9.9 7.4 8.3 90 0.8 NNE 11 15 6 8 1019.2 1019.5 0.0
18/01:00pm 9.6 6.3 7.9 89 0.8 N 15 19 8 10 1019.6 1019.9 0.0
18/12:30pm 9.1 6.2 8.0 93 0.5 N 13 17 7 9 1019.9 1020.2 0.0
18/12:00pm 8.5 5.9 7.9 96 0.3 N 11 15 6 8 1020.2 1020.5 0.0
18/11:33am 8.3 5.6 7.4 94 0.4 N 11 17 6 9 1020.3 1020.6 0.0
18/11:30am 8.1 5.4 7.2 94 0.4 N 11 17 6 9 1020.4 1020.7 0.0
18/11:00am 7.6 4.5 7.3 98 0.1 NNW 13 17 7 9 1020.6 1020.9 0.0
18/10:40am 7.0 3.8 6.9 99 0.0 N 13 17 7 9 1020.9 1021.2 0.0
18/10:30am 6.4 4.2 6.3 99 0.0 NNW 7 11 4 6 1020.8 1021.1 0.0
18/10:00am 5.6 3.8 5.6 100 0.0 NNW 4 6 2 3 1020.8 1021.1 0.0
18/09:30am 5.0 2.7 5.0 100 0.0 NNE 6 9 3 5 1020.8 1021.1 0.0
18/09:00am 4.3 2.3 4.3 100 0.0 NNE 4 7 2 4 1020.8 1021.1 0.2
18/08:30am 3.7 2.3 3.7 100 0.0 CALM 0 0 0 0 1020.7 1021.0 0.2
18/08:00am 2.9 1.4 2.9 100 0.0 CALM 0 0 0 0 1020.7 1021.0 0.2
18/07:45am 2.4 0.8 2.3 99 0.0 CALM 0 0 0 0 1020.6 1020.9 0.2
18/07:30am 2.1 0.4 2.0 99 0.0 CALM 0 0 0 0 1020.5 1020.8 0.2
18/07:00am 1.7 0.0 1.6 99 0.0 CALM 0 0 0 0 1020.5 1020.8 0.2
18/06:30am 1.8 0.1 1.7 99 0.0 CALM 0 0 0 0 1020.1 1020.4 0.2
18/06:13am 1.9 0.2 1.8 99 0.0 CALM 0 0 0 0 1020.2 1020.5 0.2
18/06:00am 1.6 -0.2 1.5 99 0.0 CALM 0 0 0 0 1020.3 1020.6 0.2
18/05:44am 1.9 0.2 1.8 99 0.0 CALM 0 0 0 0 1020.2 1020.5 0.2
18/05:36am 1.7 0.0 1.6 99 0.0 CALM 0 0 0 0 1020.2 1020.5 0.2
18/05:30am 1.9 0.2 1.8 99 0.0 CALM 0 0 0 0 1020.2 1020.5 0.2
18/05:00am 1.8 -1.1 1.7 99 0.0 WSW 6 7 3 4 1020.2 1020.5 0.2
18/04:38am 2.0 -0.1 1.9 99 0.0 WSW 2 6 1 3 1020.2 1020.5 0.2
18/04:33am 2.1 0.4 2.0 99 0.0 CALM 0 6 0 3 1020.2 1020.5 0.2
18/04:30am 2.2 0.5 2.1 99 0.0 CALM 0 0 0 0 1020.2 1020.5 0.2
18/04:14am 2.3 -0.5 2.2 99 0.0 WSW 6 7 3 4 1020.4 1020.7 0.2
18/04:00am 2.2 0.5 2.1 99 0.0 CALM 0 0 0 0 1020.7 1021.0 0.2
18/03:51am 2.3 0.3 2.2 99 0.0 W 2 6 1 3 1020.7 1021.0 0.2
18/03:30am 2.1 0.4 2.0 99 0.0 CALM 0 6 0 3 1020.9 1021.2 0.2
18/03:00am 2.2 0.5 2.1 99 0.0 CALM 0 0 0 0 1021.2 1021.5 0.2
18/02:50am 2.1 0.4 2.0 99 0.0 CALM 0 0 0 0 1021.3 1021.6 0.2
18/02:30am 2.9 1.4 2.8 99 0.0 CALM 0 0 0 0 1021.2 1021.5 0.2
18/02:00am 3.3 1.9 3.3 100 0.0 CALM 0 0 0 0 1021.3 1021.6 0.2
18/01:30am 3.2 1.7 3.2 100 0.0 CALM 0 0 0 0 1021.4 1021.7 0.2
18/01:00am 3.2 1.3 3.1 99 0.0 WNW 2 6 1 3 1021.6 1021.9 0.2
18/12:30am 3.1 1.6 3.0 99 0.0 CALM 0 0 0 0 1021.8 1022.1 0.2
18/12:10am 3.1 1.2 3.0 99 0.0 SSE 2 6 1 3 1021.8 1022.1 0.2
18/12:00am 3.9 1.4 3.9 100 0.0 SSE 6 7 3 4 1021.9 1022.2 0.2
 
Date/Time
EST
Temp
°C
App
Temp
°C
Dew
Point
°C
Rel
Hum
%
Delta-T
°C
Wind Press
QNH
hPa
Press
MSL
hPa
Rain since
9am
mm
Dir  Spd
km/h
Gust
km/h
Spd
kts
Gust
kts
17/11:52pm 3.9 1.2 3.9 100 0.0 SSE 7 7 4 4 1022.0 1022.3 0.2
17/11:30pm 3.9 1.4 3.9 100 0.0 S 6 7 3 4 1022.1 1022.4 0.2
17/11:00pm 3.6 1.1 3.5 99 0.0 SW 6 7 3 4 1022.2 1022.5 0.2
17/10:30pm 3.3 1.8 3.2 99 0.0 CALM 0 0 0 0 1022.3 1022.6 0.2
17/10:00pm 3.5 2.1 3.4 99 0.0 CALM 0 0 0 0 1022.5 1022.8 0.2
17/09:30pm 4.1 2.8 4.0 99 0.0 CALM 0 0 0 0 1022.5 1022.8 0.2
17/09:00pm 3.9 2.5 3.8 99 0.0 CALM 0 0 0 0 1022.7 1023.0 0.2
17/08:54pm 4.1 2.8 4.0 99 0.0 CALM 0 0 0 0 1022.6 1022.9 0.2
17/08:35pm 5.0 3.9 4.9 99 0.0 CALM 0 0 0 0 1022.6 1022.9 0.2
17/08:30pm 4.9 3.7 4.8 99 0.0 CALM 0 0 0 0 1022.6 1022.9 0.2
17/08:21pm 5.7 4.7 5.6 99 0.0 CALM 0 0 0 0 1022.7 1023.0 0.2
17/08:00pm 6.1 5.2 6.0 99 0.0 CALM 0 0 0 0 1022.7 1023.0 0.2
17/07:31pm 6.8 6.0 6.7 99 0.0 CALM 0 0 0 0 1022.7 1023.0 0.2
17/07:30pm 6.8 6.0 6.7 99 0.0 CALM 0 0 0 0 1022.7 1023.0 0.2
17/07:00pm 7.7 7.1 7.3 97 0.2 CALM 0 0 0 0 1022.5 1022.8 0.2
17/06:30pm 8.7 8.2 7.9 95 0.4 CALM 0 0 0 0 1022.4 1022.7 0.2
17/06:00pm 9.5 9.0 7.8 89 0.8 CALM 0 0 0 0 1022.3 1022.6 0.2
17/05:30pm 10.8 10.4 8.4 85 1.2 CALM 0 0 0 0 1022.0 1022.3 0.2
17/05:00pm 11.9 11.5 8.2 78 1.8 CALM 0 0 0 0 1021.8 1022.1 0.2
17/04:30pm 13.2 12.9 8.7 74 2.3 CALM 0 0 0 0 1021.8 1022.1 0.2
17/04:00pm 13.8 12.4 7.3 65 3.2 ESE 4 6 2 3 1022.0 1022.3 0.2
17/03:30pm 14.2 12.8 7.3 63 3.4 E 4 7 2 4 1022.1 1022.4 0.2
17/03:00pm 14.2 13.5 7.0 62 3.5 CALM 0 0 0 0 1022.1 1022.4 0.2
17/02:30pm 14.3 12.9 7.1 62 3.5 ESE 4 6 2 3 1022.1 1022.4 0.2
17/02:00pm 14.2 13.2 7.5 64 3.3 NW 2 7 1 4 1022.1 1022.4 0.2
17/01:30pm 13.3 11.7 6.2 62 3.4 N 4 7 2 4 1022.3 1022.6 0.2
17/01:00pm 12.0 10.4 6.5 69 2.6 SSE 4 7 2 4 1022.7 1023.0 0.2
17/12:30pm 11.6 10.5 6.7 72 2.3 ESE 2 7 1 4 1023.0 1023.3 0.0
17/12:00pm 11.2 10.1 6.9 75 2.1 NW 2 6 1 3 1023.5 1023.8 0.0
17/11:30am 9.7 8.6 6.8 82 1.4 SE 2 7 1 4 1023.8 1024.1 0.0
17/11:00am 9.4 8.6 6.7 83 1.3 CALM 0 6 0 3 1024.2 1024.6 0.0
17/10:30am 7.6 5.6 6.4 92 0.6 ESE 6 9 3 5 1024.5 1024.9 0.0
17/10:00am 6.5 5.7 6.4 99 0.0 CALM 0 0 0 0 1024.6 1025.0 0.0
17/09:30am 5.8 4.5 5.8 100 0.0 E 2 6 1 3 1024.6 1025.0 0.0
17/09:00am 4.4 3.2 4.4 100 0.0 CALM 0 0 0 0 1024.6 1025.0 0.0
17/08:46am 3.1 1.6 3.1 100 0.0 CALM 0 0 0 0 1024.5 1024.9 0.0
17/08:41am 2.8 1.3 2.8 100 0.0 CALM 0 0 0 0 1024.5 1024.9 0.0
17/08:30am 2.2 0.6 2.2 100 0.0 CALM 0 0 0 0 1024.4 1024.8 0.0
17/08:00am 1.1 -0.7 1.0 99 0.0 CALM 0 0 0 0 1024.2 1024.6 0.0
17/07:51am 0.8 -1.1 0.7 99 0.0 CALM 0 0 0 0 1024.2 1024.6 0.0
17/07:34am 0.5 -1.4 0.4 99 0.0 CALM 0 0 0 0 1023.9 1024.2 0.0
17/07:30am 0.6 -1.3 0.5 99 0.0 CALM 0 0 0 0 1023.8 1024.1 0.0
17/07:26am 0.8 -1.1 0.7 99 0.0 CALM 0 0 0 0 1023.8 1024.1 0.0
17/07:16am 1.2 -1.0 1.1 99 0.0 SE 2 6 1 3 1023.8 1024.1 0.0
17/07:00am 1.4 -1.5 1.3 99 0.0 SE 6 6 3 3 1023.7 1024.0 0.0
17/06:51am 1.5 -1.0 1.4 99 0.0 SSE 4 7 2 4 1023.7 1024.0 0.0
17/06:47am 1.4 -0.8 1.3 99 0.0 S 2 7 1 4 1023.7 1024.0 0.0
17/06:36am 1.2 -1.0 1.1 99 0.0 WSW 2 7 1 4 1023.7 1024.0 0.0
17/06:30am 1.0 -2.2 0.9 99 0.0 WSW 7 9 4 5 1023.6 1023.9 0.0
17/06:00am 1.6 -1.3 1.5 99 0.0 SW 6 7 3 4 1023.3 1023.6 0.0
17/05:30am 2.3 0.7 2.3 100 0.0 CALM 0 0 0 0 1023.2 1023.5 0.0
17/05:00am 3.0 1.5 3.0 100 0.0 CALM 0 0 0 0 1023.1 1023.4 0.0
17/04:30am 3.0 0.7 3.0 100 0.0 SSE 4 6 2 3 1023.2 1023.5 0.0
17/04:00am 2.0 -0.4 1.9 99 0.0 S 4 6 2 3 1023.4 1023.7 0.0
17/03:30am 2.5 0.9 2.4 99 0.0 CALM 0 0 0 0 1023.4 1023.7 0.0
17/03:00am 2.5 0.5 2.4 99 0.0 E 2 6 1 3 1023.5 1023.8 0.0
17/02:30am 2.9 0.2 2.8 99 0.0 SW 6 7 3 4 1023.4 1023.7 0.0
17/02:20am 2.5 -0.2 2.4 99 0.0 SW 6 9 3 5 1023.5 1023.8 0.0
17/02:12am 2.8 -0.1 2.7 99 0.0 SW 7 9 4 5 1023.4 1023.7 0.0

Other formats

Comma delimited format used in spreadsheet applications
http://www.bom.gov.au/fwo/IDV60801/IDV60801.94889.axf

JavaScript Object Notation format (JSON) in row-major order
http://www.bom.gov.au/fwo/IDV60801/IDV60801.94889.json

Data quality

Most of these data are generated automatically and are frequently updated. Quality checks on data are not normally performed. It is possible for incorrect values to appear. Refer to information at About Latest Weather Observations and please check the disclaimer before using these data.